createdAt,value
2018-04-22T00:02:26.072Z,17.29
2018-04-22T00:04:53.757Z,17.26
2018-04-22T00:07:21.614Z,17.20
2018-04-22T00:09:49.167Z,17.13
2018-04-22T00:12:17.480Z,17.12
2018-04-22T00:14:46.917Z,17.11
2018-04-22T00:17:14.571Z,17.09
2018-04-22T00:19:42.531Z,17.06
2018-04-22T00:22:10.252Z,17.00
2018-04-22T00:24:37.835Z,16.98
2018-04-22T00:27:05.360Z,16.96
2018-04-22T00:29:32.917Z,16.93
2018-04-22T00:32:00.432Z,16.97
2018-04-22T00:34:27.966Z,16.96
2018-04-22T00:36:55.478Z,16.94
2018-04-22T00:39:23.005Z,16.87
2018-04-22T00:41:50.544Z,16.84
2018-04-22T00:44:18.118Z,16.82
2018-04-22T00:46:45.645Z,16.83
2018-04-22T00:49:13.193Z,16.77
2018-04-22T00:51:40.723Z,16.73
2018-04-22T00:54:20.004Z,16.69
2018-04-22T00:56:47.652Z,16.65
2018-04-22T00:59:15.211Z,16.58
2018-04-22T01:01:42.746Z,16.60
2018-04-22T01:04:10.312Z,16.62
2018-04-22T01:06:37.915Z,16.59
2018-04-22T01:09:06.373Z,16.56
2018-04-22T01:11:33.902Z,16.56
2018-04-22T01:14:01.413Z,16.61
2018-04-22T01:16:28.962Z,16.59
2018-04-22T01:18:56.587Z,16.53
2018-04-22T01:21:24.115Z,16.51
2018-04-22T01:23:51.704Z,16.44
2018-04-22T01:26:19.285Z,16.40
2018-04-22T01:28:46.800Z,16.42
2018-04-22T01:31:14.346Z,16.42
2018-04-22T01:33:41.882Z,16.42
2018-04-22T01:36:09.738Z,16.42
2018-04-22T01:38:37.270Z,16.40
2018-04-22T01:41:04.871Z,16.39
2018-04-22T01:43:32.382Z,16.38
2018-04-22T01:45:59.910Z,16.34
2018-04-22T01:48:27.456Z,16.26
2018-04-22T01:50:55.139Z,16.26
2018-04-22T01:53:22.656Z,16.23
2018-04-22T01:55:50.198Z,16.24
2018-04-22T01:58:17.792Z,16.19
2018-04-22T02:00:45.317Z,16.15
2018-04-22T02:03:12.899Z,16.08
2018-04-22T02:05:40.425Z,16.05
2018-04-22T02:08:07.976Z,16.04
2018-04-22T02:10:35.574Z,15.99
2018-04-22T02:13:03.104Z,15.96
2018-04-22T02:15:30.615Z,15.91
2018-04-22T02:17:58.228Z,15.83
2018-04-22T02:20:25.737Z,15.84
2018-04-22T02:22:53.277Z,15.84
2018-04-22T02:25:20.823Z,15.82
2018-04-22T02:27:48.320Z,15.76
2018-04-22T02:30:15.874Z,15.77
2018-04-22T02:32:43.442Z,15.77
2018-04-22T02:35:11.285Z,15.70
2018-04-22T02:37:38.796Z,15.65
2018-04-22T02:40:06.418Z,15.60
2018-04-22T02:42:33.947Z,15.62
2018-04-22T02:45:01.472Z,15.60
2018-04-22T02:47:29.023Z,15.58
2018-04-22T02:49:56.526Z,15.53
2018-04-22T02:52:24.062Z,15.53
2018-04-22T02:54:51.659Z,15.51
2018-04-22T02:57:19.262Z,15.54
2018-04-22T02:59:46.812Z,15.49
2018-04-22T03:02:14.360Z,15.51
2018-04-22T03:04:42.032Z,15.44
2018-04-22T03:07:09.572Z,15.42
2018-04-22T03:09:37.110Z,15.35
2018-04-22T03:12:04.687Z,15.29
2018-04-22T03:14:32.195Z,15.25
2018-04-22T03:17:00.016Z,15.24
2018-04-22T03:19:27.555Z,15.24
2018-04-22T03:21:55.078Z,15.19
2018-04-22T03:24:22.644Z,15.16
2018-04-22T03:26:50.156Z,15.13
2018-04-22T03:29:17.690Z,15.11
2018-04-22T03:31:45.242Z,15.07
2018-04-22T03:34:12.772Z,15.04
2018-04-22T03:36:40.336Z,15.05
2018-04-22T03:39:07.877Z,15.02
2018-04-22T03:41:35.401Z,14.97
2018-04-22T03:44:02.910Z,14.98
2018-04-22T03:46:30.454Z,14.94
2018-04-22T03:48:57.980Z,14.92
2018-04-22T03:51:25.498Z,14.92
2018-04-22T03:53:53.080Z,14.94
2018-04-22T03:56:20.606Z,14.97
2018-04-22T03:58:48.194Z,14.95
2018-04-22T04:01:15.724Z,14.87
2018-04-22T04:03:43.255Z,14.90
2018-04-22T04:06:10.775Z,14.90
2018-04-22T04:08:38.331Z,14.92
2018-04-22T04:11:05.848Z,14.88
2018-04-22T04:13:33.357Z,14.87
2018-04-22T04:16:00.899Z,14.82
2018-04-22T04:21:48.429Z,14.85
2018-04-22T04:27:41.820Z,14.88
2018-04-22T04:30:09.379Z,14.87
2018-04-22T04:32:36.905Z,14.89
2018-04-22T04:35:04.693Z,14.87
2018-04-22T04:37:32.259Z,14.87
2018-04-22T04:39:59.803Z,14.85
2018-04-22T04:42:27.335Z,14.85
2018-04-22T04:44:54.865Z,14.86
2018-04-22T04:47:22.403Z,14.85
2018-04-22T04:49:49.966Z,14.87
2018-04-22T04:52:17.607Z,14.95
2018-04-22T04:54:45.133Z,14.94
2018-04-22T04:57:12.686Z,15.00
2018-04-22T04:59:40.229Z,14.99
2018-04-22T05:02:07.744Z,15.04
2018-04-22T05:04:35.306Z,15.06
2018-04-22T05:07:02.839Z,15.05
2018-04-22T05:09:30.345Z,15.08
2018-04-22T05:11:57.872Z,15.08
2018-04-22T05:14:25.382Z,15.11
2018-04-22T05:16:52.907Z,15.10
2018-04-22T05:19:20.455Z,15.12
2018-04-22T05:21:48.002Z,15.12
2018-04-22T05:24:15.519Z,15.15
2018-04-22T05:26:43.489Z,15.14
2018-04-22T05:29:11.008Z,15.17
2018-04-22T05:31:38.525Z,15.20
2018-04-22T05:34:06.065Z,15.20
2018-04-22T05:36:33.584Z,15.25
2018-04-22T05:39:01.123Z,15.25
2018-04-22T05:41:28.667Z,15.19
2018-04-22T05:43:56.195Z,15.21
2018-04-22T05:46:23.716Z,15.21
2018-04-22T05:48:51.242Z,15.24
2018-04-22T05:51:19.078Z,15.23
2018-04-22T05:53:46.804Z,15.28
2018-04-22T05:56:14.338Z,15.27
2018-04-22T05:58:42.169Z,15.20
2018-04-22T06:01:09.703Z,15.17
2018-04-22T06:03:37.269Z,15.31
2018-04-22T06:06:04.801Z,15.53
2018-04-22T06:08:32.346Z,15.84
2018-04-22T06:10:59.881Z,16.20
2018-04-22T06:13:27.395Z,16.60
2018-04-22T06:15:54.899Z,16.77
2018-04-22T06:18:22.434Z,16.91
2018-04-22T06:20:49.958Z,17.25
2018-04-22T06:23:17.505Z,17.51
2018-04-22T06:25:45.230Z,17.96
2018-04-22T06:28:12.870Z,18.32
2018-04-22T06:30:40.395Z,18.75
2018-04-22T06:33:07.976Z,19.21
2018-04-22T06:35:35.569Z,19.35
2018-04-22T06:38:03.094Z,19.60
2018-04-22T06:40:30.898Z,19.48
2018-04-22T06:42:58.450Z,19.63
2018-04-22T06:45:25.994Z,19.44
2018-04-22T06:47:53.579Z,19.78
2018-04-22T06:50:21.140Z,19.98
2018-04-22T06:52:48.667Z,20.00
2018-04-22T06:55:16.267Z,19.85
2018-04-22T06:57:43.881Z,19.71
2018-04-22T07:00:11.380Z,19.74
2018-04-22T07:02:39.248Z,19.83
2018-04-22T07:05:06.772Z,19.84
2018-04-22T07:07:34.282Z,19.96
2018-04-22T07:10:01.839Z,19.96
2018-04-22T07:12:29.354Z,20.21
2018-04-22T07:14:56.968Z,20.20
2018-04-22T07:17:24.496Z,20.20
2018-04-22T07:19:52.050Z,19.42
2018-04-22T07:22:19.610Z,19.57
2018-04-22T07:24:47.146Z,19.06
2018-04-22T07:27:14.648Z,19.38
2018-04-22T07:29:42.199Z,19.20
2018-04-22T07:32:09.740Z,19.22
2018-04-22T07:34:38.068Z,19.10
2018-04-22T07:37:05.601Z,18.90
2018-04-22T07:39:33.155Z,18.97
2018-04-22T07:42:00.746Z,18.97
2018-04-22T07:44:28.271Z,18.95
2018-04-22T07:46:55.831Z,18.94
2018-04-22T07:49:23.360Z,18.73
2018-04-22T07:51:50.920Z,18.67
2018-04-22T07:54:18.470Z,18.74
2018-04-22T07:56:45.984Z,18.90
2018-04-22T07:59:13.493Z,19.01
2018-04-22T08:01:41.088Z,19.08
2018-04-22T08:04:09.903Z,19.09
2018-04-22T08:06:37.433Z,19.19
2018-04-22T08:09:05.370Z,19.34
2018-04-22T08:11:33.240Z,19.77
2018-04-22T08:14:00.762Z,19.85
2018-04-22T08:16:28.637Z,20.09
2018-04-22T08:18:56.164Z,20.25
2018-04-22T08:21:23.749Z,20.63
2018-04-22T08:23:51.389Z,20.52
2018-04-22T08:26:20.018Z,20.41
2018-04-22T08:28:47.777Z,20.56
2018-04-22T08:31:15.318Z,20.64
2018-04-22T08:33:42.944Z,20.70
2018-04-22T08:36:10.465Z,20.93
2018-04-22T08:38:38.035Z,21.03
2018-04-22T08:41:06.111Z,21.38
2018-04-22T08:43:33.978Z,21.94
2018-04-22T08:46:01.547Z,22.57
2018-04-22T08:48:29.123Z,22.97
2018-04-22T08:50:56.698Z,23.08
2018-04-22T08:53:24.718Z,23.04
2018-04-22T08:55:52.278Z,23.69
2018-04-22T08:58:19.775Z,24.03
2018-04-22T09:00:47.346Z,24.65
2018-04-22T09:03:14.892Z,24.90
2018-04-22T09:05:42.420Z,24.22
2018-04-22T09:08:09.954Z,23.89
2018-04-22T09:10:37.603Z,24.83
2018-04-22T09:13:05.131Z,24.39
2018-04-22T09:15:32.695Z,24.11
2018-04-22T09:18:00.209Z,24.71
2018-04-22T09:20:27.749Z,24.86
2018-04-22T09:22:55.296Z,24.69
2018-04-22T09:25:22.831Z,24.81
2018-04-22T09:27:50.365Z,24.18
2018-04-22T09:30:17.919Z,23.99
2018-04-22T09:32:45.436Z,24.08
2018-04-22T09:35:12.992Z,24.35
2018-04-22T09:37:40.529Z,24.82
2018-04-22T09:40:08.081Z,25.48
2018-04-22T09:42:35.749Z,24.85
2018-04-22T09:45:03.323Z,24.71
2018-04-22T09:47:31.241Z,24.06
2018-04-22T09:49:58.872Z,23.87
2018-04-22T09:52:26.354Z,24.18
2018-04-22T09:54:53.881Z,23.50
2018-04-22T09:57:21.409Z,23.21
2018-04-22T09:59:49.000Z,23.23
2018-04-22T10:02:16.528Z,23.47
2018-04-22T10:04:47.645Z,23.38
2018-04-22T10:07:15.163Z,23.38
2018-04-22T10:09:42.707Z,23.12
2018-04-22T10:12:10.262Z,23.10
2018-04-22T10:14:37.784Z,23.10
2018-04-22T10:17:05.333Z,23.43
2018-04-22T10:19:32.935Z,23.35
2018-04-22T10:22:00.545Z,23.72
2018-04-22T10:24:28.563Z,23.61
2018-04-22T10:26:56.074Z,24.21
2018-04-22T10:29:23.589Z,24.58
2018-04-22T10:31:51.125Z,24.69
2018-04-22T10:34:18.635Z,25.36
2018-04-22T10:36:46.193Z,25.75
2018-04-22T10:39:13.724Z,26.02
2018-04-22T10:41:41.244Z,26.43
2018-04-22T10:44:08.786Z,26.09
2018-04-22T10:46:36.415Z,26.07
2018-04-22T10:49:04.203Z,26.40
2018-04-22T10:51:31.731Z,26.80
2018-04-22T10:53:59.490Z,27.61
2018-04-22T10:56:30.566Z,27.92
2018-04-22T10:58:58.110Z,27.28
2018-04-22T11:01:25.665Z,27.15
2018-04-22T11:03:53.169Z,27.23
2018-04-22T11:06:20.696Z,27.71
2018-04-22T11:08:48.240Z,27.73
2018-04-22T11:11:15.772Z,27.59
2018-04-22T11:13:43.377Z,27.85
2018-04-22T11:16:10.897Z,27.80
2018-04-22T11:18:38.489Z,27.90
2018-04-22T11:21:06.016Z,27.10
2018-04-22T11:23:33.893Z,26.93
2018-04-22T11:26:01.434Z,26.23
2018-04-22T11:28:29.002Z,27.29
2018-04-22T11:30:56.531Z,27.40
2018-04-22T11:33:24.105Z,27.84
2018-04-22T11:35:51.663Z,28.60
2018-04-22T11:38:19.386Z,30.60
2018-04-22T11:40:47.249Z,30.90
2018-04-22T11:43:14.824Z,31.76
2018-04-22T11:45:42.380Z,32.23
2018-04-22T11:48:09.940Z,32.64
2018-04-22T11:50:37.492Z,34.64
2018-04-22T11:53:05.019Z,35.94
2018-04-22T11:55:32.544Z,37.87
2018-04-22T11:58:00.089Z,34.69
2018-04-22T12:00:27.627Z,34.69
2018-04-22T12:02:55.228Z,36.65
2018-04-22T12:05:22.756Z,37.11
2018-04-22T12:07:50.299Z,38.62
2018-04-22T12:10:17.860Z,38.52
2018-04-22T12:12:45.443Z,39.28
2018-04-22T12:15:12.982Z,40.44
2018-04-22T12:17:40.692Z,40.14
2018-04-22T12:20:08.205Z,36.89
2018-04-22T12:22:35.749Z,36.65
2018-04-22T12:25:03.367Z,38.89
2018-04-22T12:27:30.890Z,37.71
2018-04-22T12:29:58.416Z,35.85
2018-04-22T12:32:25.957Z,38.45
2018-04-22T12:34:53.733Z,39.83
2018-04-22T12:37:21.541Z,40.00
2018-04-22T12:39:49.075Z,37.00
2018-04-22T12:42:17.070Z,34.92
2018-04-22T12:44:44.594Z,34.12
2018-04-22T12:47:12.602Z,34.50
2018-04-22T12:49:40.119Z,35.55
2018-04-22T12:52:07.934Z,35.90
2018-04-22T12:54:35.554Z,36.11
2018-04-22T12:57:03.108Z,36.23
2018-04-22T12:59:30.915Z,35.45
2018-04-22T13:01:58.784Z,37.00
2018-04-22T13:04:26.336Z,38.96
2018-04-22T13:06:53.862Z,37.15
2018-04-22T13:09:21.417Z,37.73
2018-04-22T13:11:48.949Z,35.71
2018-04-22T13:14:16.527Z,35.90
2018-04-22T13:16:44.093Z,35.24
2018-04-22T13:19:11.631Z,33.48
2018-04-22T13:21:39.146Z,32.41
2018-04-22T13:24:06.712Z,31.47
2018-04-22T13:26:34.245Z,30.52
2018-04-22T13:29:01.822Z,29.42
2018-04-22T13:31:29.407Z,28.99
2018-04-22T13:33:56.994Z,28.10
2018-04-22T13:36:24.571Z,28.02
2018-04-22T13:38:52.163Z,27.99
2018-04-22T13:41:19.693Z,27.56
2018-04-22T13:43:47.206Z,27.42
2018-04-22T13:46:14.754Z,27.54
2018-04-22T13:48:42.275Z,27.48
2018-04-22T13:51:09.832Z,27.06
2018-04-22T13:53:37.449Z,26.64
2018-04-22T13:56:04.978Z,26.57
2018-04-22T13:58:32.513Z,26.70
2018-04-22T14:01:00.155Z,26.78
2018-04-22T14:03:27.671Z,26.69
2018-04-22T14:05:55.198Z,26.83
2018-04-22T14:08:22.751Z,26.79
2018-04-22T14:10:50.261Z,27.28
2018-04-22T14:13:18.057Z,27.62
2018-04-22T14:15:45.602Z,27.89
2018-04-22T14:18:13.133Z,28.10
2018-04-22T14:20:40.668Z,28.27
2018-04-22T14:23:08.225Z,28.37
2018-04-22T14:25:35.741Z,28.55
2018-04-22T14:28:03.270Z,28.36
2018-04-22T14:30:30.815Z,28.19
2018-04-22T14:32:58.326Z,27.77
2018-04-22T14:35:25.911Z,26.58
2018-04-22T14:37:53.686Z,26.23
2018-04-22T14:40:21.199Z,26.13
2018-04-22T14:42:48.728Z,26.15
2018-04-22T14:45:27.987Z,26.41
2018-04-22T14:47:55.510Z,27.10
2018-04-22T14:50:23.110Z,27.62
2018-04-22T14:52:50.670Z,28.23
2018-04-22T14:55:18.214Z,28.53
2018-04-22T14:57:45.807Z,28.81
2018-04-22T15:00:13.420Z,28.54
2018-04-22T15:02:40.976Z,28.10
2018-04-22T15:05:08.499Z,27.17
2018-04-22T15:07:36.060Z,26.81
2018-04-22T15:10:03.602Z,26.49
2018-04-22T15:12:31.123Z,26.25
2018-04-22T15:14:58.816Z,26.15
2018-04-22T15:17:26.357Z,26.19
2018-04-22T15:19:53.881Z,25.99
2018-04-22T15:22:21.447Z,25.71
2018-04-22T15:24:48.986Z,25.76
2018-04-22T15:27:16.510Z,25.80
2018-04-22T15:29:44.067Z,25.82
2018-04-22T15:32:11.616Z,25.76
2018-04-22T15:34:39.358Z,25.64
2018-04-22T15:37:06.881Z,25.43
2018-04-22T15:39:34.483Z,25.41
2018-04-22T15:42:01.990Z,25.30
2018-04-22T15:44:29.550Z,25.26
2018-04-22T15:46:57.735Z,25.30
2018-04-22T15:49:25.282Z,25.15
2018-04-22T15:51:52.929Z,25.13
2018-04-22T15:54:20.465Z,24.73
2018-04-22T15:56:47.974Z,24.87
2018-04-22T15:59:15.557Z,24.87
2018-04-22T16:01:43.106Z,24.99
2018-04-22T16:04:10.868Z,25.07
2018-04-22T16:06:38.456Z,25.05
2018-04-22T16:09:07.007Z,25.04
2018-04-22T16:11:34.597Z,25.08
2018-04-22T16:14:02.174Z,25.03
2018-04-22T16:16:29.714Z,25.01
2018-04-22T16:18:57.416Z,24.91
2018-04-22T16:21:25.163Z,24.94
2018-04-22T16:23:52.996Z,24.71
2018-04-22T16:26:20.535Z,24.66
2018-04-22T16:28:48.100Z,24.59
2018-04-22T16:31:15.995Z,24.45
2018-04-22T16:33:43.553Z,24.40
2018-04-22T16:36:11.105Z,24.18
2018-04-22T16:38:38.864Z,24.23
2018-04-22T16:41:06.512Z,24.05
2018-04-22T16:43:34.044Z,24.01
2018-04-22T16:46:01.599Z,23.96
2018-04-22T16:48:29.141Z,23.92
2018-04-22T16:50:56.833Z,23.93
2018-04-22T16:53:24.354Z,23.96
2018-04-22T16:55:51.877Z,23.97
2018-04-22T16:58:19.431Z,23.93
2018-04-22T17:00:46.934Z,23.79
2018-04-22T17:03:14.466Z,23.81
2018-04-22T17:05:42.059Z,23.85
2018-04-22T17:08:09.568Z,23.82
2018-04-22T17:10:37.205Z,23.81
2018-04-22T17:13:05.039Z,23.82
2018-04-22T17:15:32.628Z,23.79
2018-04-22T17:18:00.297Z,23.78
2018-04-22T17:20:27.889Z,23.74
2018-04-22T17:22:55.592Z,23.71
2018-04-22T17:25:23.101Z,23.71
2018-04-22T17:27:50.635Z,23.68
2018-04-22T17:30:18.278Z,23.67
2018-04-22T17:32:45.801Z,23.53
2018-04-22T17:35:13.770Z,23.48
2018-04-22T17:37:41.554Z,23.47
2018-04-22T17:40:09.107Z,23.42
2018-04-22T17:42:36.737Z,23.37
2018-04-22T17:45:04.279Z,23.35
2018-04-22T17:47:31.790Z,23.29
2018-04-22T17:49:59.663Z,23.23
2018-04-22T17:52:27.233Z,23.15
2018-04-22T17:54:54.761Z,23.11
2018-04-22T17:57:22.336Z,23.06
2018-04-22T17:59:49.938Z,23.05
2018-04-22T18:02:17.497Z,23.05
2018-04-22T18:04:45.125Z,22.98
2018-04-22T18:07:12.643Z,22.90
2018-04-22T18:09:40.207Z,22.84
2018-04-22T18:12:07.777Z,22.80
2018-04-22T18:14:35.463Z,22.70
2018-04-22T18:17:03.021Z,22.67
2018-04-22T18:19:30.641Z,22.57
2018-04-22T18:21:59.040Z,22.57
2018-04-22T18:24:26.545Z,22.53
2018-04-22T18:26:54.135Z,22.49
2018-04-22T18:29:21.765Z,22.47
2018-04-22T18:31:49.314Z,22.38
2018-04-22T18:34:16.879Z,22.37
2018-04-22T18:36:44.390Z,22.31
2018-04-22T18:39:12.020Z,22.26
2018-04-22T18:41:39.564Z,22.25
2018-04-22T18:44:07.078Z,22.19
2018-04-22T18:46:34.664Z,22.23
2018-04-22T18:49:02.358Z,22.17
2018-04-22T18:51:29.913Z,22.08
2018-04-22T18:53:57.436Z,22.06
2018-04-22T18:56:25.239Z,22.03
2018-04-22T18:58:52.881Z,22.05
2018-04-22T19:01:20.437Z,22.05
2018-04-22T19:03:47.996Z,22.05
2018-04-22T19:06:15.559Z,21.95
2018-04-22T19:08:43.086Z,21.98
2018-04-22T19:11:10.673Z,21.89
2018-04-22T19:13:38.264Z,21.90
2018-04-22T19:16:05.953Z,21.88
2018-04-22T19:18:33.482Z,21.88
2018-04-22T19:21:01.220Z,21.83
2018-04-22T19:23:28.954Z,21.77
2018-04-22T19:25:57.320Z,21.69
2018-04-22T19:28:24.997Z,21.60
2018-04-22T19:30:52.721Z,21.60
2018-04-22T19:33:20.612Z,21.57
2018-04-22T19:35:48.126Z,21.54
2018-04-22T19:38:15.931Z,21.53
2018-04-22T19:40:43.468Z,21.51
2018-04-22T19:43:10.996Z,21.44
2018-04-22T19:45:38.542Z,21.44
2018-04-22T19:48:06.099Z,21.41
2018-04-22T19:50:33.695Z,21.41
2018-04-22T19:53:01.301Z,21.36
2018-04-22T19:55:28.840Z,21.35
2018-04-22T19:57:56.366Z,21.27
2018-04-22T20:00:23.904Z,21.21
2018-04-22T20:02:51.549Z,21.18
2018-04-22T20:05:19.365Z,21.13
2018-04-22T20:07:47.169Z,21.18
2018-04-22T20:10:14.981Z,21.08
2018-04-22T20:12:42.523Z,21.06
2018-04-22T20:15:10.051Z,21.14
2018-04-22T20:17:37.614Z,21.17
2018-04-22T20:20:07.918Z,21.07
2018-04-22T20:22:35.697Z,21.06
2018-04-22T20:25:04.335Z,21.05
2018-04-22T20:27:35.137Z,21.07
2018-04-22T20:30:04.048Z,21.10
2018-04-22T20:32:31.652Z,21.10
2018-04-22T20:35:00.305Z,21.08
2018-04-22T20:37:36.655Z,21.11
2018-04-22T20:40:05.489Z,21.10
2018-04-22T20:42:34.225Z,21.13
2018-04-22T20:45:01.991Z,21.01
2018-04-22T20:47:31.714Z,20.98
2018-04-22T20:50:04.571Z,21.00
2018-04-22T20:52:32.119Z,20.96
2018-04-22T20:55:00.088Z,20.85
2018-04-22T20:57:30.683Z,20.89
2018-04-22T20:59:58.508Z,20.85
2018-04-22T21:02:26.265Z,20.77
2018-04-22T21:04:56.711Z,20.83
2018-04-22T21:07:24.557Z,20.89
2018-04-22T21:09:53.481Z,20.88
2018-04-22T21:12:21.460Z,20.49
2018-04-22T21:14:50.205Z,20.44
2018-04-22T21:17:17.979Z,20.66
2018-04-22T21:19:47.394Z,20.85
2018-04-22T21:22:16.064Z,20.90
2018-04-22T21:24:44.021Z,20.97
2018-04-22T21:27:14.411Z,21.01
2018-04-22T21:29:41.940Z,21.06
2018-04-22T21:32:09.797Z,21.11
2018-04-22T21:34:37.572Z,21.10
2018-04-22T21:37:05.127Z,21.10
2018-04-22T21:39:32.654Z,21.10
2018-04-22T21:42:00.553Z,21.14
2018-04-22T21:44:28.075Z,21.05
2018-04-22T21:46:55.848Z,21.10
2018-04-22T21:49:23.742Z,21.04
2018-04-22T21:51:51.266Z,21.08
2018-04-22T21:54:18.812Z,21.02
2018-04-22T21:56:46.369Z,20.96
2018-04-22T21:59:13.902Z,20.98
2018-04-22T22:01:41.426Z,20.94
2018-04-22T22:04:08.982Z,20.94
2018-04-22T22:06:36.594Z,20.94
2018-04-22T22:09:04.224Z,20.94
2018-04-22T22:11:32.032Z,20.91
2018-04-22T22:13:59.865Z,20.95
2018-04-22T22:16:27.435Z,20.85
2018-04-22T22:18:55.037Z,20.86
2018-04-22T22:21:22.545Z,20.81
2018-04-22T22:23:50.086Z,20.81
2018-04-22T22:26:17.684Z,20.77
2018-04-22T22:28:45.239Z,20.81
2018-04-22T22:31:12.790Z,20.70
2018-04-22T22:33:40.405Z,20.71
2018-04-22T22:36:07.959Z,20.70
2018-04-22T22:38:35.473Z,20.68
2018-04-22T22:41:03.013Z,20.71
2018-04-22T22:43:30.827Z,20.64
2018-04-22T22:45:58.375Z,20.61
2018-04-22T22:48:25.930Z,20.54
2018-04-22T22:50:53.536Z,20.50
2018-04-22T22:53:21.089Z,20.51
2018-04-22T22:55:48.687Z,20.50
2018-04-22T22:58:16.245Z,20.51
2018-04-22T23:00:43.767Z,20.54
2018-04-22T23:03:11.336Z,20.55
2018-04-22T23:05:38.863Z,20.55
2018-04-22T23:08:06.374Z,20.60
2018-04-22T23:10:34.178Z,20.65
2018-04-22T23:13:02.051Z,20.62
2018-04-22T23:15:29.568Z,20.57
2018-04-22T23:17:57.123Z,20.57
2018-04-22T23:20:24.621Z,20.56
2018-04-22T23:22:52.167Z,20.51
2018-04-22T23:25:19.723Z,20.38
2018-04-22T23:27:47.263Z,20.26
2018-04-22T23:30:14.787Z,20.26
2018-04-22T23:32:42.319Z,20.26
2018-04-22T23:35:09.832Z,20.26
2018-04-22T23:37:37.338Z,20.17
2018-04-22T23:40:04.878Z,20.18
2018-04-22T23:42:32.663Z,20.01
2018-04-22T23:45:00.263Z,19.96
2018-04-22T23:47:27.917Z,19.86
2018-04-22T23:49:55.477Z,19.81
2018-04-22T23:52:22.999Z,19.69
2018-04-22T23:54:51.107Z,19.74
2018-04-22T23:57:18.969Z,19.80
2018-04-22T23:59:46.494Z,19.84
